CLYO2: Little River nr Cloudy 5ENE

Data processed at Thu May 23 2019 23:50


All information presented herein is the property of the government of the United States of America and may be revised or deleted at any time without prior notice.
Dissemination of this information without the expressed written consent of the Public Affairs Office, Tulsa District U.S. Army Corps of Engineers is strictly prohibited.
These data are gathered electronically and, as presented, have not undergone any form of quality control. These data are not guaranteed to be valid or correct.
Go to home page.
Go to station list.
Go to home page.

Downstream station:


Previous Day
Next Day
Current Day
    
SHEF ID:       CLYO2     Little River nr Cloudy 5ENE
STATION TYPE:  

               PRECIP     STAGE  RIV-FLOW   VOLTAGE  BAT-LOAD
                   in        ft       cfs      volt      volt
              Ccp-Rev   Ccp-Rev   Ccp-Rev   Ccp-Rev   Ccp-Rev
(US/Central)
05/23 00:00      0.00      5.72      1175     12.71     12.65
05/23 01:00      0.00      5.69      1156     12.71     12.65
05/23 02:00      0.00      5.68      1149     12.71     12.65
05/23 03:00      0.00      5.65      1129     12.65     12.65
05/23 04:00      0.00      5.64      1123     12.65     12.60
05/23 05:00      0.00      5.60      1096     12.65     12.60
05/23 06:00      0.00      5.58      1083     12.65     12.60
05/23 07:00      0.00      5.56      1070     12.65     12.60
05/23 08:00      0.00      5.54      1057     12.83     12.60
05/23 09:00      0.00      5.53      1050     13.53     12.77
05/23 10:00      0.00      5.49      1014     13.53     13.42
05/23 11:00      0.00      5.47       996     14.06     13.42
05/23 12:00      0.00      5.47       996     13.83     14.18
05/23 13:00      0.00      5.45       978     14.00     13.48
05/23 14:00      0.00      5.44       969     14.18     13.36
05/23 15:00      0.00      5.42       951     13.83     13.36
05/23 16:00      0.00      5.37       906     13.53     13.30
05/23 17:00      0.00      5.38       915     13.48     13.30
05/23 18:00      0.00      5.37       906     13.36     13.24
05/23 19:00      0.00      5.35       888     13.24     13.18
05/23 20:00      0.00      5.32       861     13.00     13.12
05/23 21:00      0.00      5.31       852     12.77     12.89
05/23 22:00      0.00      5.30       843     12.77     12.71
05/23 23:00      0.00      5.28       825     12.71     12.65